CheckWX is a tool to help pilots better visualize weather data.  It is not intended as a substitute for an official pre-flight weather briefing.

14:16:30 UTC

KTTN METAR
Trenton Mercer Airport
Trenton, New Jersey, USA
Current

24 mins ago

KTTN 291353Z 35007KT 10SM OVC038 02/M07 A3008 RMK AO2 SLP181 T00171067
Observed
Jan-29 @ 13:53 UTC
Wind
  • 350° at 7 KTS
Visibility
10 SM
Flight Rules
VFR
Cloud Levels
  • Overcast at 3,800' AGL
Temperature
C / 36°F
Dewpoint
-7°C / 19°F
Humidity
52%
Altimeter
30.08" Hg
Pressure
1018.62 hPa
Previous

1 hour ago

KTTN 291253Z 34007KT 10SM OVC041 02/M07 A3006 RMK AO2 SLP174 T00171067
Observed
Jan-29 @ 12:53 UTC
Wind
  • 340° at 7 KTS
Visibility
10 SM
Flight Rules
VFR
Cloud Levels
  • Overcast at 4,100' AGL
Temperature
C / 36°F
Dewpoint
-7°C / 19°F
Humidity
52%
Altimeter
30.06" Hg
Pressure
1017.92 hPa
Previous

2 hours ago

KTTN 291153Z 32004KT 10SM OVC038 02/M06 A3003 RMK AO2 SLP163 T00171056 10022 20017 53017
Observed
Jan-29 @ 11:53 UTC
Wind
  • 320° at 4 KTS
Visibility
10 SM
Flight Rules
VFR
Cloud Levels
  • Overcast at 3,800' AGL
Temperature
C / 36°F
Dewpoint
-6°C / 21°F
Humidity
56%
Altimeter
30.03" Hg
Pressure
1016.92 hPa